createdAt,value
2018-08-25T00:01:10.616Z,5.70
2018-08-25T00:04:14.238Z,9.10
2018-08-25T00:07:17.842Z,7.53
2018-08-25T00:10:21.508Z,6.13
2018-08-25T00:13:25.118Z,4.20
2018-08-25T00:16:28.726Z,6.37
2018-08-25T00:19:32.369Z,3.63
2018-08-25T00:22:35.975Z,6.77
2018-08-25T00:25:39.587Z,7.30
2018-08-25T00:28:43.184Z,29.40
2018-08-25T00:31:46.851Z,14.03
2018-08-25T00:34:50.402Z,6.53
2018-08-25T00:37:54.023Z,6.07
2018-08-25T00:40:57.677Z,6.10
2018-08-25T00:44:01.298Z,6.13
2018-08-25T00:47:05.102Z,7.07
2018-08-25T00:50:08.710Z,6.33
2018-08-25T00:53:12.325Z,7.30
2018-08-25T00:56:15.913Z,5.97
2018-08-25T00:59:19.784Z,5.17
2018-08-25T01:02:23.627Z,7.17
2018-08-25T01:05:27.238Z,6.70
2018-08-25T01:08:30.831Z,6.60
2018-08-25T01:11:34.676Z,3.70
2018-08-25T01:14:38.433Z,5.10
2018-08-25T01:17:42.039Z,6.30
2018-08-25T01:20:47.333Z,6.33
2018-08-25T01:23:50.936Z,7.53
2018-08-25T01:26:54.561Z,18.20
2018-08-25T01:29:58.165Z,6.70
2018-08-25T01:33:01.784Z,8.13
2018-08-25T01:36:05.566Z,10.87
2018-08-25T01:39:09.618Z,8.50
2018-08-25T01:42:13.239Z,6.23
2018-08-25T01:45:16.847Z,7.87
2018-08-25T01:48:20.465Z,13.47
2018-08-25T01:51:24.070Z,8.30
2018-08-25T01:54:27.695Z,8.13
2018-08-25T01:57:31.292Z,13.63
2018-08-25T02:00:35.023Z,14.90
2018-08-25T02:03:38.638Z,13.07
2018-08-25T02:06:42.263Z,9.50
2018-08-25T02:09:45.878Z,9.00
2018-08-25T02:12:49.522Z,8.53
2018-08-25T02:15:53.121Z,11.03
2018-08-25T02:18:56.739Z,8.03
2018-08-25T02:22:00.430Z,8.83
2018-08-25T02:25:04.049Z,9.73
2018-08-25T02:28:07.662Z,7.10
2018-08-25T02:31:11.263Z,6.00
2018-08-25T02:34:14.887Z,8.97
2018-08-25T02:37:18.497Z,11.97
2018-08-25T02:40:22.142Z,8.50
2018-08-25T02:43:25.755Z,11.50
2018-08-25T02:46:29.373Z,9.43
2018-08-25T02:49:32.958Z,9.33
2018-08-25T02:52:36.574Z,12.47
2018-08-25T02:55:40.167Z,8.27
2018-08-25T02:58:43.781Z,8.07
2018-08-25T03:01:47.382Z,7.60
2018-08-25T03:04:50.998Z,20.87
2018-08-25T03:07:54.617Z,7.80
2018-08-25T03:10:58.219Z,12.97
2018-08-25T03:14:01.947Z,10.90
2018-08-25T03:17:05.580Z,12.37
2018-08-25T03:20:09.189Z,8.57
2018-08-25T03:23:12.828Z,15.73
2018-08-25T03:26:16.423Z,10.57
2018-08-25T03:29:20.068Z,6.47
2018-08-25T03:32:23.653Z,12.47
2018-08-25T03:35:27.464Z,9.00
2018-08-25T03:38:31.080Z,9.93
2018-08-25T03:46:55.558Z,7.03
2018-08-25T03:49:59.363Z,8.93
2018-08-25T03:53:03.000Z,10.17
2018-08-25T03:56:07.151Z,11.33
2018-08-25T03:59:11.027Z,10.60
2018-08-25T04:02:14.635Z,9.37
2018-08-25T04:05:18.279Z,8.10
2018-08-25T04:08:21.887Z,7.77
2018-08-25T04:11:25.504Z,7.87
2018-08-25T04:14:29.102Z,8.77
2018-08-25T04:17:32.731Z,11.30
2018-08-25T04:20:36.460Z,9.87
2018-08-25T04:23:40.102Z,8.50
2018-08-25T04:26:43.745Z,10.47
2018-08-25T04:29:47.360Z,11.03
2018-08-25T04:32:51.033Z,14.27
2018-08-25T04:35:54.664Z,17.90
2018-08-25T04:38:58.350Z,28.27
2018-08-25T04:42:01.976Z,25.73
2018-08-25T04:45:05.797Z,24.53
2018-08-25T04:48:09.411Z,25.13
2018-08-25T04:51:13.051Z,26.50
2018-08-25T04:54:16.899Z,26.77
2018-08-25T04:57:20.513Z,25.10
2018-08-25T05:00:24.592Z,27.90
2018-08-25T05:03:28.468Z,36.20
2018-08-25T05:06:32.094Z,37.00
2018-08-25T05:09:35.697Z,37.13
2018-08-25T05:12:39.431Z,31.67
2018-08-25T05:15:43.051Z,45.30
2018-08-25T05:18:46.662Z,24.50
2018-08-25T05:21:50.313Z,29.57
2018-08-25T05:24:53.908Z,26.10
2018-08-25T05:27:57.556Z,26.53
2018-08-25T05:31:01.163Z,28.57
2018-08-25T05:34:04.798Z,26.03
2018-08-25T05:37:08.524Z,28.33
2018-08-25T05:40:12.167Z,27.80
2018-08-25T05:43:15.778Z,33.57
2018-08-25T05:46:19.415Z,27.23
2018-08-25T05:49:23.169Z,27.63
2018-08-25T05:52:26.803Z,32.47
2018-08-25T05:55:30.658Z,31.83
2018-08-25T05:58:34.294Z,35.37
2018-08-25T06:01:37.914Z,33.90
2018-08-25T06:04:41.564Z,31.40
2018-08-25T06:07:45.252Z,30.80
2018-08-25T06:10:48.896Z,31.73
2018-08-25T06:13:52.525Z,34.07
2018-08-25T06:16:56.149Z,37.07
2018-08-25T06:19:59.772Z,31.60
2018-08-25T06:23:03.398Z,34.00
2018-08-25T06:26:12.683Z,34.20
2018-08-25T06:29:16.298Z,33.93
2018-08-25T06:32:19.915Z,30.00
2018-08-25T06:35:23.571Z,30.93
2018-08-25T06:38:27.184Z,32.57
2018-08-25T06:41:30.858Z,28.87
2018-08-25T06:44:34.463Z,30.00
2018-08-25T06:47:38.101Z,31.17
2018-08-25T06:50:41.711Z,27.90
2018-08-25T06:53:45.422Z,33.90
2018-08-25T06:56:49.038Z,37.60
2018-08-25T06:59:52.662Z,39.05
2018-08-25T07:02:56.270Z,38.23
2018-08-25T07:05:59.986Z,37.83
2018-08-25T07:09:05.807Z,43.68
2018-08-25T07:12:09.539Z,37.90
2018-08-25T07:15:13.186Z,40.48
2018-08-25T07:18:16.835Z,37.20
2018-08-25T07:21:20.704Z,37.53
2018-08-25T07:24:24.354Z,36.40
2018-08-25T07:27:27.966Z,42.50
2018-08-25T07:30:31.645Z,34.73
2018-08-25T07:33:35.266Z,38.43
2018-08-25T07:36:38.903Z,37.97
2018-08-25T07:39:42.574Z,34.90
2018-08-25T07:42:46.202Z,34.98
2018-08-25T07:45:49.832Z,38.75
2018-08-25T07:48:53.467Z,36.08
2018-08-25T07:51:57.130Z,32.00
2018-08-25T07:55:00.708Z,36.40
2018-08-25T07:58:04.346Z,30.95
2018-08-25T08:01:08.002Z,38.53
2018-08-25T08:04:11.652Z,29.50
2018-08-25T08:07:15.431Z,32.05
2018-08-25T08:10:19.060Z,32.05
2018-08-25T08:13:22.678Z,30.23
2018-08-25T08:16:26.322Z,35.08
2018-08-25T08:19:29.951Z,33.63
2018-08-25T08:22:33.870Z,39.80
2018-08-25T08:25:37.486Z,34.92
2018-08-25T08:28:41.119Z,32.38
2018-08-25T08:31:44.815Z,26.95
2018-08-25T08:34:48.520Z,22.17
2018-08-25T08:37:52.398Z,20.20
2018-08-25T08:40:56.086Z,18.92
2018-08-25T08:43:59.691Z,12.80
2018-08-25T08:47:03.690Z,13.28
2018-08-25T08:50:08.939Z,13.10
2018-08-25T08:53:12.593Z,12.63
2018-08-25T08:56:16.556Z,16.30
2018-08-25T08:59:20.306Z,12.78
2018-08-25T09:02:23.975Z,11.57
2018-08-25T09:05:27.598Z,13.83
2018-08-25T09:08:31.276Z,15.05
2018-08-25T09:11:35.034Z,12.55
2018-08-25T09:14:38.615Z,14.18
2018-08-25T09:17:42.427Z,12.78
2018-08-25T09:20:46.129Z,17.00
2018-08-25T09:23:49.741Z,11.38
2018-08-25T09:26:53.588Z,16.37
2018-08-25T09:29:57.213Z,16.82
2018-08-25T09:33:00.941Z,14.53
2018-08-25T09:36:04.590Z,13.08
2018-08-25T09:39:09.547Z,14.47
2018-08-25T09:42:13.203Z,13.83
2018-08-25T09:45:16.938Z,11.45
2018-08-25T09:48:20.551Z,17.48
2018-08-25T09:51:24.196Z,12.50
2018-08-25T09:54:27.839Z,12.10
2018-08-25T09:57:31.659Z,11.97
2018-08-25T10:00:35.402Z,9.38
2018-08-25T10:03:39.000Z,11.97
2018-08-25T10:06:42.642Z,9.53
2018-08-25T10:09:46.261Z,11.90
2018-08-25T10:12:49.928Z,12.93
2018-08-25T10:15:53.555Z,13.28
2018-08-25T10:18:57.427Z,11.78
2018-08-25T10:22:01.061Z,11.43
2018-08-25T10:25:04.830Z,17.10
2018-08-25T10:28:08.427Z,10.95
2018-08-25T10:31:12.044Z,15.55
2018-08-25T10:34:15.738Z,14.25
2018-08-25T10:37:19.442Z,16.87
2018-08-25T10:40:23.047Z,15.15
2018-08-25T10:43:26.673Z,12.43
2018-08-25T10:46:30.306Z,18.35
2018-08-25T10:49:33.947Z,17.87
2018-08-25T10:52:37.854Z,15.98
2018-08-25T10:55:41.448Z,12.80
2018-08-25T10:58:45.100Z,16.42
2018-08-25T11:01:48.710Z,16.17
2018-08-25T11:04:52.545Z,12.45
2018-08-25T11:07:56.387Z,14.73
2018-08-25T11:11:00.014Z,13.90
2018-08-25T11:14:03.626Z,11.70
2018-08-25T11:17:07.320Z,15.65
2018-08-25T11:20:10.950Z,7.17
2018-08-25T11:23:14.587Z,8.93
2018-08-25T11:26:18.174Z,6.85
2018-08-25T11:29:22.037Z,8.98
2018-08-25T11:32:25.596Z,8.45
2018-08-25T11:35:29.183Z,8.25
2018-08-25T11:38:32.826Z,8.57
2018-08-25T11:41:36.508Z,10.90
2018-08-25T11:44:40.146Z,6.78
2018-08-25T11:47:43.772Z,5.85
2018-08-25T11:50:47.491Z,8.40
2018-08-25T11:53:51.139Z,7.50
2018-08-25T11:56:54.790Z,6.67
2018-08-25T11:59:58.687Z,5.60
2018-08-25T12:03:03.833Z,5.22
2018-08-25T12:06:05.970Z,13.10
2018-08-25T12:09:11.169Z,5.08
2018-08-25T12:12:14.990Z,8.33
2018-08-25T12:15:18.619Z,6.37
2018-08-25T12:18:22.232Z,6.08
2018-08-25T12:21:25.979Z,11.18
2018-08-25T12:24:29.612Z,4.83
2018-08-25T12:27:33.252Z,7.90
2018-08-25T12:30:36.883Z,6.87
2018-08-25T12:33:40.486Z,4.58
2018-08-25T12:36:44.102Z,5.65
2018-08-25T12:39:47.860Z,9.05
2018-08-25T12:42:51.537Z,12.80
2018-08-25T12:45:55.178Z,8.38
2018-08-25T12:48:58.824Z,5.85
2018-08-25T12:52:02.513Z,16.17
2018-08-25T12:55:06.155Z,13.93
2018-08-25T12:58:09.826Z,9.87
2018-08-25T13:01:13.394Z,11.43
2018-08-25T13:04:16.989Z,8.50
2018-08-25T13:07:20.644Z,8.00
2018-08-25T13:10:24.270Z,6.33
2018-08-25T13:13:27.929Z,7.50
2018-08-25T13:16:31.532Z,10.57
2018-08-25T13:19:35.426Z,10.33
2018-08-25T13:22:39.025Z,7.17
2018-08-25T13:25:42.726Z,6.83
2018-08-25T13:28:46.335Z,9.23
2018-08-25T13:31:49.978Z,10.27
2018-08-25T13:34:53.578Z,9.83
2018-08-25T13:37:57.194Z,6.50
2018-08-25T13:41:00.800Z,4.83
2018-08-25T13:44:04.473Z,7.43
2018-08-25T13:47:08.068Z,7.60
2018-08-25T13:50:11.679Z,10.33
2018-08-25T13:53:15.314Z,15.47
2018-08-25T13:56:18.918Z,10.23
2018-08-25T13:59:22.665Z,6.70
2018-08-25T14:02:26.267Z,8.93
2018-08-25T14:05:29.923Z,18.97
2018-08-25T14:08:33.521Z,6.83
2018-08-25T14:11:37.277Z,7.50
2018-08-25T14:14:41.030Z,8.53
2018-08-25T14:17:44.782Z,5.30
2018-08-25T14:20:48.694Z,10.47
2018-08-25T14:23:52.299Z,6.10
2018-08-25T14:26:55.931Z,16.30
2018-08-25T14:29:59.577Z,9.00
2018-08-25T14:33:03.190Z,5.53
2018-08-25T14:36:06.928Z,6.40
2018-08-25T14:39:11.478Z,8.83
2018-08-25T14:42:15.094Z,6.13
2018-08-25T14:45:18.702Z,7.17
2018-08-25T14:48:22.318Z,6.87
2018-08-25T14:51:26.041Z,5.73
2018-08-25T14:54:29.698Z,9.23
2018-08-25T14:57:33.306Z,7.47
2018-08-25T15:00:37.461Z,6.53
2018-08-25T15:03:41.214Z,5.83
2018-08-25T15:06:44.863Z,4.53
2018-08-25T15:09:48.574Z,7.80
2018-08-25T15:12:52.196Z,6.23
2018-08-25T15:15:55.811Z,7.20
2018-08-25T15:18:59.528Z,8.93
2018-08-25T15:22:03.076Z,12.37
2018-08-25T15:25:06.783Z,15.77
2018-08-25T15:28:10.384Z,8.93
2018-08-25T15:31:13.990Z,10.77
2018-08-25T15:34:17.634Z,14.27
2018-08-25T15:37:21.253Z,8.07
2018-08-25T15:40:24.862Z,6.37
2018-08-25T15:43:28.555Z,3.63
2018-08-25T15:46:32.206Z,7.13
2018-08-25T15:49:35.836Z,5.03
2018-08-25T15:52:39.446Z,4.50
2018-08-25T15:55:43.074Z,4.67
2018-08-25T15:58:46.693Z,4.80
2018-08-25T16:01:50.331Z,3.30
2018-08-25T16:04:54.012Z,5.17
2018-08-25T16:07:57.640Z,7.57
2018-08-25T16:11:01.280Z,6.50
2018-08-25T16:14:04.941Z,9.40
2018-08-25T16:17:08.562Z,2.93
2018-08-25T16:20:12.486Z,3.47
2018-08-25T16:23:16.086Z,2.17
2018-08-25T16:26:20.324Z,3.10
2018-08-25T16:29:23.921Z,6.33
2018-08-25T16:32:27.583Z,6.17
2018-08-25T16:35:31.195Z,12.07
2018-08-25T16:38:34.815Z,8.00
2018-08-25T16:41:38.461Z,4.90
2018-08-25T16:44:42.132Z,5.30
2018-08-25T16:47:45.786Z,13.53
2018-08-25T16:50:49.737Z,13.97
2018-08-25T16:53:53.360Z,3.50
2018-08-25T16:56:57.080Z,6.97
2018-08-25T17:00:00.680Z,2.60
2018-08-25T17:03:04.347Z,4.03
2018-08-25T17:06:07.989Z,3.83
2018-08-25T17:09:11.985Z,3.80
2018-08-25T17:12:15.798Z,4.83
2018-08-25T17:15:19.431Z,3.23
2018-08-25T17:18:23.262Z,3.07
2018-08-25T17:21:26.889Z,4.93
2018-08-25T17:24:30.498Z,2.93
2018-08-25T17:27:34.221Z,5.13
2018-08-25T17:30:37.884Z,3.17
2018-08-25T17:33:41.542Z,3.30
2018-08-25T17:36:45.170Z,4.00
2018-08-25T17:39:48.905Z,2.80
2018-08-25T17:42:52.509Z,7.77
2018-08-25T17:45:56.213Z,8.50
2018-08-25T17:48:59.866Z,3.83
2018-08-25T17:52:03.614Z,8.60
2018-08-25T17:55:07.236Z,3.80
2018-08-25T17:58:10.883Z,2.77
2018-08-25T18:01:14.541Z,6.93
2018-08-25T18:04:18.166Z,6.27
2018-08-25T18:07:21.863Z,3.33
2018-08-25T18:10:25.486Z,2.90
2018-08-25T18:13:29.132Z,7.87
2018-08-25T18:16:32.757Z,2.10
2018-08-25T18:19:36.605Z,2.20
2018-08-25T18:22:40.259Z,4.20
2018-08-25T18:25:43.935Z,3.53
2018-08-25T18:28:47.568Z,6.50
2018-08-25T18:31:51.204Z,7.77
2018-08-25T18:34:54.856Z,3.30
2018-08-25T18:37:58.510Z,15.40
2018-08-25T18:41:02.144Z,6.30
2018-08-25T18:44:06.022Z,6.53
2018-08-25T18:47:09.706Z,6.03
2018-08-25T18:50:13.290Z,4.17
2018-08-25T18:53:16.916Z,5.17
2018-08-25T18:56:20.615Z,5.60
2018-08-25T18:59:24.314Z,6.80
2018-08-25T19:02:27.936Z,7.50
2018-08-25T19:05:31.528Z,3.13
2018-08-25T19:08:35.230Z,2.50
2018-08-25T19:11:38.823Z,2.87
2018-08-25T19:14:42.447Z,2.47
2018-08-25T19:17:46.104Z,3.40
2018-08-25T19:20:49.761Z,3.83
2018-08-25T19:23:53.536Z,3.63
2018-08-25T19:26:57.126Z,6.40
2018-08-25T19:30:00.787Z,4.20
2018-08-25T19:33:04.444Z,4.20
2018-08-25T19:36:08.045Z,4.60
2018-08-25T19:39:11.713Z,5.33
2018-08-25T19:42:15.374Z,6.13
2018-08-25T19:45:18.986Z,2.77
2018-08-25T19:48:22.630Z,3.30
2018-08-25T19:51:26.268Z,3.20
2018-08-25T19:54:29.886Z,2.90
2018-08-25T19:57:33.499Z,7.00
2018-08-25T20:00:37.146Z,6.57
2018-08-25T20:03:40.766Z,2.90
2018-08-25T20:06:45.029Z,2.13
2018-08-25T20:09:48.687Z,4.40
2018-08-25T20:12:52.343Z,5.93
2018-08-25T20:15:55.978Z,2.50
2018-08-25T20:18:59.617Z,2.10
2018-08-25T20:22:03.441Z,3.53
2018-08-25T20:25:07.701Z,2.90
2018-08-25T20:28:11.744Z,2.97
2018-08-25T20:31:15.400Z,3.23
2018-08-25T20:34:19.040Z,3.13
2018-08-25T20:37:22.670Z,3.93
2018-08-25T20:40:26.317Z,7.57
2018-08-25T20:43:30.007Z,13.03
2018-08-25T20:46:33.647Z,7.70
2018-08-25T20:49:37.402Z,4.87
2018-08-25T20:52:41.054Z,3.57
2018-08-25T20:55:44.724Z,2.40
2018-08-25T20:58:49.383Z,5.30
2018-08-25T21:01:52.977Z,2.60
2018-08-25T21:04:56.612Z,3.97
2018-08-25T21:08:00.231Z,2.53
2018-08-25T21:11:03.860Z,2.20
2018-08-25T21:14:07.457Z,8.23
2018-08-25T21:17:11.099Z,5.07
2018-08-25T21:20:14.699Z,3.60
2018-08-25T21:23:18.665Z,4.73
2018-08-25T21:26:22.290Z,4.10
2018-08-25T21:29:26.012Z,2.33
2018-08-25T21:32:29.592Z,2.00
2018-08-25T21:35:33.228Z,2.93
2018-08-25T21:38:36.834Z,8.77
2018-08-25T21:41:40.682Z,1.77
2018-08-25T21:44:45.532Z,4.73
2018-08-25T21:47:49.190Z,2.90
2018-08-25T21:50:52.849Z,2.77
2018-08-25T21:53:56.455Z,3.60
2018-08-25T21:57:00.097Z,2.80
2018-08-25T22:00:03.849Z,2.63
2018-08-25T22:03:07.662Z,6.50
2018-08-25T22:06:11.300Z,5.57
2018-08-25T22:09:14.919Z,4.60
2018-08-25T22:12:18.556Z,5.60
2018-08-25T22:15:22.224Z,4.87
2018-08-25T22:18:25.887Z,3.23
2018-08-25T22:21:29.606Z,4.10
2018-08-25T22:24:33.218Z,3.30
2018-08-25T22:27:36.852Z,6.37
2018-08-25T22:30:40.476Z,2.47
2018-08-25T22:34:47.507Z,2.70
2018-08-25T22:37:51.121Z,3.93
2018-08-25T22:40:54.804Z,3.30
2018-08-25T22:43:58.497Z,3.13
2018-08-25T22:47:02.132Z,2.97
2018-08-25T22:50:05.780Z,2.70
2018-08-25T22:53:09.428Z,2.67
2018-08-25T22:56:13.063Z,5.43
2018-08-25T22:59:16.687Z,5.80
2018-08-25T23:02:20.458Z,4.47
2018-08-25T23:05:24.059Z,3.03
2018-08-25T23:08:27.720Z,1.80
2018-08-25T23:11:31.344Z,3.97
2018-08-25T23:14:34.988Z,5.90
2018-08-25T23:17:38.605Z,2.83
2018-08-25T23:20:42.231Z,5.17
2018-08-25T23:23:45.849Z,3.73
2018-08-25T23:26:49.490Z,3.80
2018-08-25T23:29:53.277Z,2.80
2018-08-25T23:32:56.910Z,3.33
2018-08-25T23:36:00.510Z,3.07
2018-08-25T23:39:05.971Z,3.60
2018-08-25T23:42:09.595Z,3.60
2018-08-25T23:45:13.449Z,6.93
2018-08-25T23:48:17.048Z,2.90
2018-08-25T23:51:20.673Z,7.20
2018-08-25T23:54:24.478Z,3.27
2018-08-25T23:57:28.106Z,3.50
